^^
Station Historical Data
Daily Summary for March 15, 2017 Units:  English    Metric   Both
« Previous Day
Next Day »
Daily Weekly Monthly Yearly Custom
  High: Low: Average:
Temperature: 25.4 °F 16.5 °F 20.7 °F
Dew Point: 24.2 °F 14.6 °F 19.2 °F
Humidity: 95 % 92 % 94 %
Wind Speed: 19.8 mph 3.6 mph 10.1 mph
Wind Gust: 28.8 mph - -
Wind:- - West
Pressure: 29.99 in 29.67 in -
Precipitation: 0.00 in    
Historical Graphs
 
 
Tabular Data for March 15, 2017
Time Temperature Dew Point Pressure Wind Wind Speed Wind Gust Humidity Rainfall Rate (Hourly) solar Conditions
00:03 18.4 °F 16.7 °F 29.69 in WNW 6.5 mph 9.2 mph 93 % 0.00 in 0.0 W/m2 RA
00:08 18.5 °F 16.8 °F 29.69 in West 12.2 mph 19.6 mph 93 % 0.00 in 0.0 W/m2 RA
00:13 18.4 °F 16.7 °F 29.68 in WNW 12.9 mph 19.6 mph 93 % 0.00 in 0.0 W/m2 SCT
00:18 18.4 °F 16.7 °F 29.68 in NW 12.0 mph 16.1 mph 93 % 0.00 in 0.0 W/m2 SCT
00:23 18.4 °F 16.7 °F 29.68 in WSW 6.5 mph 9.2 mph 93 % 0.00 in 0.0 W/m2 SCT
00:28 18.4 °F 16.7 °F 29.68 in WNW 8.9 mph 12.7 mph 93 % 0.00 in 0.0 W/m2 SCT
00:33 18.4 °F 16.7 °F 29.68 in WNW 8.1 mph 13.8 mph 93 % 0.00 in 0.0 W/m2 SCT
00:38 18.4 °F 16.7 °F 29.68 in WNW 15.1 mph 21.9 mph 93 % 0.00 in 0.0 W/m2 SCT
00:43 18.4 °F 16.7 °F 29.68 in WNW 13.1 mph 20.7 mph 93 % 0.00 in 0.0 W/m2 SCT
00:48 18.5 °F 16.8 °F 29.68 in West 10.8 mph 12.7 mph 93 % 0.00 in 0.0 W/m2 SCT
00:53 18.5 °F 16.8 °F 29.68 in WSW 10.1 mph 16.1 mph 93 % 0.00 in 0.0 W/m2 SCT
00:58 18.5 °F 16.8 °F 29.67 in West 10.6 mph 19.6 mph 93 % 0.00 in 0.0 W/m2 SCT
01:03 18.5 °F 16.8 °F 29.67 in WNW 12.0 mph 16.1 mph 93 % 0.00 in 0.0 W/m2 SCT
01:08 18.4 °F 16.7 °F 29.67 in WSW 15.5 mph 21.9 mph 93 % 0.00 in 0.0 W/m2 SCT
01:13 18.4 °F 16.7 °F 29.67 in NW 8.0 mph 15.0 mph 93 % 0.00 in 0.0 W/m2 SCT
01:18 18.4 °F 16.7 °F 29.67 in WNW 10.5 mph 19.6 mph 93 % 0.00 in 0.0 W/m2 SCT
01:23 18.5 °F 16.8 °F 29.68 in WNW 7.9 mph 12.7 mph 93 % 0.00 in 0.0 W/m2 SCT
01:28 18.5 °F 16.8 °F 29.67 in NW 9.4 mph 16.1 mph 93 % 0.00 in 0.0 W/m2 SCT
01:33 18.6 °F 16.9 °F 29.68 in WNW 12.6 mph 16.1 mph 93 % 0.00 in 0.0 W/m2 SCT
01:38 18.6 °F 16.9 °F 29.68 in WNW 11.0 mph 19.6 mph 93 % 0.00 in 0.0 W/m2 SCT
01:43 18.5 °F 16.8 °F 29.67 in WNW 12.9 mph 19.6 mph 93 % 0.00 in 0.0 W/m2 SCT
01:48 18.5 °F 16.8 °F 29.68 in WNW 10.9 mph 17.3 mph 93 % 0.00 in 0.0 W/m2 SCT
01:53 18.6 °F 16.9 °F 29.68 in WNW 9.2 mph 17.3 mph 93 % 0.00 in 0.0 W/m2 SCT
01:58 18.6 °F 16.9 °F 29.68 in WNW 9.2 mph 15.0 mph 93 % 0.00 in 0.0 W/m2 SCT
02:03 18.6 °F 16.9 °F 29.68 in West 9.8 mph 16.1 mph 93 % 0.00 in 0.0 W/m2 SCT
02:08 18.5 °F 16.8 °F 29.67 in WNW 12.0 mph 18.0 mph 93 % 0.00 in 0.0 W/m2 SCT
02:13 18.5 °F 16.8 °F 29.67 in WNW 13.5 mph 16.1 mph 93 % 0.00 in 0.0 W/m2 SCT
02:18 18.5 °F 16.8 °F 29.68 in NW 10.1 mph 16.1 mph 93 % 0.00 in 0.0 W/m2 SCT
02:23 18.5 °F 16.8 °F 29.68 in WNW 12.1 mph 17.3 mph 93 % 0.00 in 0.0 W/m2 SCT
02:28 18.5 °F 16.8 °F 29.68 in West 15.1 mph 21.9 mph 93 % 0.00 in 0.0 W/m2 SCT
02:30 18.5 °F 16.8 °F 29.68 in West 15.2 mph 21.9 mph 93 % 0.00 in 0.0 W/m2 SCT
02:35 18.5 °F 16.8 °F 29.68 in WNW 9.4 mph 15.0 mph 93 % 0.00 in 0.0 W/m2 SCT
02:40 18.5 °F 16.8 °F 29.68 in West 15.9 mph 18.4 mph 93 % 0.00 in 0.0 W/m2 SCT
02:45 18.5 °F 16.8 °F 29.68 in West 13.4 mph 20.7 mph 93 % 0.00 in 0.0 W/m2 SCT
02:50 18.5 °F 16.8 °F 29.68 in West 9.4 mph 13.8 mph 93 % 0.00 in 0.0 W/m2 SCT
02:55 18.5 °F 16.8 °F 29.68 in West 10.1 mph 19.6 mph 93 % 0.00 in 0.0 W/m2 SCT
03:00 18.5 °F 16.8 °F 29.68 in West 8.2 mph 13.0 mph 93 % 0.00 in 0.0 W/m2 SCT
03:05 18.5 °F 16.8 °F 29.68 in West 13.4 mph 19.6 mph 93 % 0.00 in 0.0 W/m2 SCT
03:10 18.6 °F 16.9 °F 29.68 in WNW 11.6 mph 20.7 mph 93 % 0.00 in 0.0 W/m2 SCT
03:15 18.5 °F 16.8 °F 29.68 in WNW 12.4 mph 17.3 mph 93 % 0.00 in 0.0 W/m2 SCT
03:20 18.6 °F 16.9 °F 29.68 in West 9.3 mph 16.0 mph 93 % 0.00 in 0.0 W/m2 SCT
03:25 18.6 °F 16.9 °F 29.68 in West 7.7 mph 13.8 mph 93 % 0.00 in 0.0 W/m2 SCT
03:30 18.6 °F 16.9 °F 29.68 in West 10.0 mph 17.3 mph 93 % 0.00 in 0.0 W/m2 SCT
03:35 18.6 °F 16.9 °F 29.68 in WNW 12.7 mph 18.4 mph 93 % 0.00 in 0.0 W/m2 SCT
03:40 18.6 °F 16.9 °F 29.68 in West 10.1 mph 19.6 mph 93 % 0.00 in 0.0 W/m2 SCT
03:45 18.6 °F 16.9 °F 29.68 in WSW 14.3 mph 18.4 mph 93 % 0.00 in 0.0 W/m2 SCT
03:50 18.6 °F 16.9 °F 29.68 in WNW 12.0 mph 19.6 mph 93 % 0.00 in 0.0 W/m2 SCT
03:55 18.5 °F 16.8 °F 29.68 in WNW 11.1 mph 17.3 mph 93 % 0.00 in 0.0 W/m2 SCT
03:56 18.6 °F 16.9 °F 29.68 in West 11.4 mph 16.1 mph 93 % 0.00 in 0.0 W/m2 SCT
04:01 18.6 °F 16.9 °F 29.68 in West 9.1 mph 13.8 mph 93 % 0.00 in 0.0 W/m2 SCT
04:06 18.6 °F 16.9 °F 29.68 in West 7.3 mph 10.4 mph 93 % 0.00 in 0.0 W/m2 SCT
04:11 18.6 °F 16.9 °F 29.68 in West 11.9 mph 21.9 mph 93 % 0.00 in 0.0 W/m2 SCT
04:16 18.5 °F 16.8 °F 29.68 in WNW 8.8 mph 12.7 mph 93 % 0.00 in 0.0 W/m2 SCT
04:21 18.5 °F 16.8 °F 29.68 in West 11.9 mph 17.3 mph 93 % 0.00 in 0.0 W/m2 SCT
04:26 18.5 °F 16.8 °F 29.68 in West 8.5 mph 16.0 mph 93 % 0.00 in 0.0 W/m2 SCT
04:31 18.4 °F 16.7 °F 29.68 in West 12.5 mph 15.0 mph 93 % 0.00 in 0.0 W/m2 SCT
04:36 18.4 °F 16.7 °F 29.68 in West 10.5 mph 13.8 mph 93 % 0.00 in 0.0 W/m2 SCT
04:41 18.4 °F 16.7 °F 29.68 in West 9.4 mph 12.7 mph 93 % 0.00 in 0.0 W/m2 SCT
04:46 18.5 °F 16.8 °F 29.68 in WNW 10.2 mph 16.1 mph 93 % 0.00 in 0.0 W/m2 SCT
04:51 18.6 °F 16.9 °F 29.68 in West 8.5 mph 16.1 mph 93 % 0.00 in 0.0 W/m2 SCT
04:56 18.6 °F 16.9 °F 29.68 in WNW 11.9 mph 15.0 mph 93 % 0.00 in 0.0 W/m2 SCT
05:01 18.6 °F 16.9 °F 29.68 in NW 7.8 mph 18.4 mph 93 % 0.00 in 0.0 W/m2 SCT
05:06 18.5 °F 16.8 °F 29.68 in West 9.6 mph 15.0 mph 93 % 0.00 in 0.0 W/m2 SCT
05:11 18.5 °F 16.8 °F 29.69 in WSW 7.0 mph 11.5 mph 93 % 0.00 in 0.0 W/m2 SCT
05:16 18.4 °F 16.7 °F 29.69 in SW 9.6 mph 12.7 mph 93 % 0.00 in 0.0 W/m2 SCT
05:21 18.3 °F 16.6 °F 29.69 in West 7.2 mph 11.5 mph 93 % 0.00 in 0.0 W/m2 SCT
05:26 18.3 °F 16.6 °F 29.69 in WSW 5.9 mph 12.7 mph 93 % 0.00 in 0.0 W/m2 SCT
05:31 18.2 °F 16.5 °F 29.69 in West 8.0 mph 13.8 mph 93 % 0.00 in 0.0 W/m2 SCT
05:36 18.1 °F 16.4 °F 29.69 in WSW 8.1 mph 11.5 mph 93 % 0.00 in 0.0 W/m2 SCT
05:37 18.1 °F 16.4 °F 29.69 in WSW 7.5 mph 14.0 mph 93 % 0.00 in 0.0 W/m2 SCT
05:42 18.0 °F 16.3 °F 29.70 in WSW 9.6 mph 11.5 mph 93 % 0.00 in 0.0 W/m2 SCT
05:47 17.9 °F 16.2 °F 29.70 in West 5.7 mph 13.8 mph 93 % 0.00 in 0.0 W/m2 SCT
05:52 17.8 °F 16.1 °F 29.70 in WSW 11.5 mph 16.1 mph 93 % 0.00 in 0.0 W/m2 SCT
05:57 17.8 °F 16.1 °F 29.70 in WSW 6.9 mph 14.0 mph 93 % 0.00 in 0.0 W/m2 SCT
06:02 17.7 °F 16.0 °F 29.70 in WSW 7.4 mph 11.5 mph 93 % 0.00 in 0.0 W/m2 SCT
06:07 17.6 °F 15.9 °F 29.70 in WSW 7.2 mph 8.0 mph 93 % 0.00 in 0.0 W/m2 SCT
06:12 17.5 °F 15.8 °F 29.70 in West 6.7 mph 11.5 mph 93 % 0.00 in 0.0 W/m2 SCT
06:17 17.5 °F 15.8 °F 29.70 in WSW 5.1 mph 10.0 mph 93 % 0.00 in 0.0 W/m2 SCT
06:22 17.5 °F 15.8 °F 29.70 in WSW 8.2 mph 15.0 mph 93 % 0.00 in 0.0 W/m2 SCT
06:27 17.4 °F 15.7 °F 29.70 in West 5.8 mph 13.8 mph 93 % 0.00 in 0.0 W/m2 SCT
06:32 17.4 °F 15.7 °F 29.70 in West 5.5 mph 7.0 mph 93 % 0.00 in 0.0 W/m2 SCT
06:37 17.3 °F 15.6 °F 29.70 in WSW 5.1 mph 11.5 mph 93 % 0.00 in 0.0 W/m2 SCT
06:42 17.3 °F 15.6 °F 29.70 in WSW 7.2 mph 11.5 mph 93 % 0.00 in 0.0 W/m2 SCT
06:47 17.3 °F 15.6 °F 29.70 in SW 9.8 mph 15.0 mph 93 % 0.00 in 0.0 W/m2 SCT
06:52 17.3 °F 15.6 °F 29.70 in WSW 5.6 mph 11.5 mph 93 % 0.00 in 0.0 W/m2 SCT
06:57 17.2 °F 15.5 °F 29.70 in NW 8.3 mph 13.8 mph 93 % 0.00 in 0.0 W/m2 SCT
07:02 17.2 °F 15.5 °F 29.71 in SW 9.3 mph 15.0 mph 93 % 0.00 in 0.0 W/m2 SCT
07:07 17.1 °F 15.4 °F 29.71 in West 5.9 mph 13.8 mph 93 % 0.00 in 0.0 W/m2 SCT
07:12 17.1 °F 15.4 °F 29.71 in West 3.9 mph 9.2 mph 93 % 0.00 in 0.0 W/m2 SCT
07:17 17.0 °F 15.3 °F 29.71 in West 4.1 mph 12.0 mph 93 % 0.00 in 5.0 W/m2 SCT
07:22 17.0 °F 15.3 °F 29.71 in West 7.2 mph 12.7 mph 93 % 0.00 in 7.0 W/m2 SCT
07:27 16.9 °F 15.0 °F 29.71 in WSW 6.3 mph 11.5 mph 92 % 0.00 in 9.0 W/m2 SCT
07:32 16.9 °F 15.0 °F 29.71 in West 9.8 mph 12.7 mph 92 % 0.00 in 12.0 W/m2 SCT
07:37 16.8 °F 14.9 °F 29.71 in WSW 9.2 mph 17.3 mph 92 % 0.00 in 21.0 W/m2 SCT
07:42 16.7 °F 14.8 °F 29.72 in WSW 3.9 mph 11.0 mph 92 % 0.00 in 35.0 W/m2 SCT
07:47 16.7 °F 14.8 °F 29.71 in West 8.7 mph 12.7 mph 92 % 0.00 in 49.0 W/m2 SCT
07:52 16.7 °F 14.8 °F 29.72 in West 4.7 mph 10.4 mph 92 % 0.00 in 63.0 W/m2 SCT
07:57 16.6 °F 14.7 °F 29.72 in WSW 8.1 mph 13.8 mph 92 % 0.00 in 74.0 W/m2 SCT
08:02 16.6 °F 14.7 °F 29.72 in WSW 6.0 mph 10.4 mph 92 % 0.00 in 79.0 W/m2 CLR
08:07 16.6 °F 14.7 °F 29.72 in West 11.1 mph 17.3 mph 92 % 0.00 in 86.0 W/m2 CLR
08:12 16.6 °F 14.7 °F 29.72 in WSW 9.7 mph 17.3 mph 92 % 0.00 in 86.0 W/m2 CLR
08:17 16.5 °F 14.6 °F 29.71 in WSW 8.4 mph 11.5 mph 92 % 0.00 in 84.0 W/m2 FEW
08:22 16.5 °F 14.6 °F 29.72 in WSW 5.7 mph 8.1 mph 92 % 0.00 in 91.0 W/m2 FEW
08:27 16.5 °F 14.6 °F 29.72 in West 6.6 mph 10.4 mph 92 % 0.00 in 91.0 W/m2 FEW
08:32 16.5 °F 14.6 °F 29.72 in West 4.1 mph 12.7 mph 92 % 0.00 in 111.0 W/m2 FEW
08:37 16.6 °F 14.7 °F 29.72 in WSW 4.0 mph 10.4 mph 92 % 0.00 in 107.0 W/m2 FEW
08:42 16.6 °F 14.7 °F 29.72 in SW 10.7 mph 15.0 mph 92 % 0.00 in 118.0 W/m2 FEW
08:47 16.8 °F 14.9 °F 29.72 in WSW 5.0 mph 11.5 mph 92 % 0.00 in 105.0 W/m2 SCT
08:52 16.8 °F 14.9 °F 29.72 in WNW 7.6 mph 17.3 mph 92 % 0.00 in 141.0 W/m2 SCT
08:57 16.9 °F 15.0 °F 29.72 in West 4.9 mph 9.2 mph 92 % 0.00 in 155.0 W/m2 FEW
09:02 17.0 °F 15.1 °F 29.72 in WSW 11.5 mph 12.7 mph 92 % 0.00 in 227.0 W/m2 CLR
09:07 17.0 °F 15.1 °F 29.72 in WSW 10.6 mph 15.0 mph 92 % 0.00 in 214.0 W/m2 CLR
09:10 17.1 °F 15.2 °F 29.72 in West 6.4 mph 11.5 mph 92 % 0.00 in 271.0 W/m2 CLR
09:15 17.2 °F 15.3 °F 29.72 in West 6.4 mph 18.4 mph 92 % 0.00 in 304.0 W/m2 CLR
09:20 17.3 °F 15.6 °F 29.72 in West 11.0 mph 17.3 mph 93 % 0.00 in 299.0 W/m2 CLR
09:25 17.4 °F 15.7 °F 29.72 in West 8.3 mph 13.8 mph 93 % 0.00 in 278.0 W/m2 CLR
09:30 17.5 °F 15.8 °F 29.72 in WSW 10.6 mph 11.5 mph 93 % 0.00 in 285.0 W/m2 CLR
09:35 17.7 °F 16.0 °F 29.72 in West 12.9 mph 15.0 mph 93 % 0.00 in 243.0 W/m2 CLR
09:40 17.7 °F 16.0 °F 29.72 in West 6.8 mph 16.1 mph 93 % 0.00 in 258.0 W/m2 FEW
09:45 17.8 °F 16.1 °F 29.72 in WNW 10.4 mph 13.8 mph 93 % 0.00 in 318.0 W/m2 CLR
09:50 17.9 °F 16.2 °F 29.72 in WSW 11.1 mph 14.0 mph 93 % 0.00 in 350.0 W/m2 CLR
09:55 18.0 °F 16.3 °F 29.72 in WSW 7.0 mph 20.0 mph 93 % 0.00 in 302.0 W/m2 FEW
10:00 18.1 °F 16.4 °F 29.72 in WNW 13.0 mph 17.3 mph 93 % 0.00 in 313.0 W/m2 CLR
10:05 18.2 °F 16.5 °F 29.72 in WNW 9.7 mph 17.0 mph 93 % 0.00 in 269.0 W/m2 FEW
10:10 18.2 °F 16.5 °F 29.72 in West 15.5 mph 20.7 mph 93 % 0.00 in 288.0 W/m2 FEW
10:15 18.3 °F 16.6 °F 29.72 in WSW 8.6 mph 13.8 mph 93 % 0.00 in 366.0 W/m2 FEW
10:20 18.3 °F 16.6 °F 29.72 in West 4.6 mph 11.5 mph 93 % 0.00 in 352.0 W/m2 FEW
10:25 18.5 °F 16.8 °F 29.71 in WSW 9.6 mph 15.0 mph 93 % 0.00 in 462.0 W/m2 CLR
10:30 18.6 °F 16.9 °F 29.71 in SSW 9.3 mph 16.1 mph 93 % 0.00 in 362.0 W/m2 FEW
10:35 18.8 °F 17.1 °F 29.71 in WNW 12.7 mph 18.4 mph 93 % 0.00 in 299.0 W/m2 SCT
10:40 18.9 °F 17.2 °F 29.71 in WSW 8.8 mph 16.1 mph 93 % 0.00 in 308.0 W/m2 SCT
10:45 19.0 °F 17.3 °F 29.71 in West 9.4 mph 14.0 mph 93 % 0.00 in 329.0 W/m2 SCT
10:50 19.0 °F 17.3 °F 29.71 in West 5.4 mph 10.4 mph 93 % 0.00 in 330.0 W/m2 SCT
10:55 19.1 °F 17.4 °F 29.72 in West 8.6 mph 9.2 mph 93 % 0.00 in 315.0 W/m2 SCT
11:00 19.1 °F 17.4 °F 29.72 in West 14.4 mph 21.9 mph 93 % 0.00 in 276.0 W/m2 SCT
11:05 19.1 °F 17.4 °F 29.72 in West 3.9 mph 9.2 mph 93 % 0.00 in 287.0 W/m2 SCT
11:10 19.1 °F 17.4 °F 29.71 in West 7.1 mph 16.1 mph 93 % 0.00 in 311.0 W/m2 SCT
11:15 19.2 °F 17.5 °F 29.71 in West 14.5 mph 23.0 mph 93 % 0.00 in 388.0 W/m2 SCT
11:20 19.2 °F 17.5 °F 29.71 in NW 9.9 mph 17.3 mph 93 % 0.00 in 346.0 W/m2 SCT
11:25 19.3 °F 17.6 °F 29.71 in WSW 4.5 mph 8.1 mph 93 % 0.00 in 352.0 W/m2 SCT
11:30 19.3 °F 17.6 °F 29.71 in WNW 11.0 mph 13.8 mph 93 % 0.00 in 346.0 W/m2 SCT
11:35 19.3 °F 17.6 °F 29.71 in WSW 10.4 mph 17.3 mph 93 % 0.00 in 348.0 W/m2 SCT
11:40 19.4 °F 17.7 °F 29.71 in WNW 3.6 mph 10.4 mph 93 % 0.00 in 336.0 W/m2 SCT
11:45 19.5 °F 17.8 °F 29.71 in West 5.9 mph 11.0 mph 93 % 0.00 in 346.0 W/m2 SCT
11:50 19.6 °F 17.9 °F 29.71 in West 8.1 mph 11.5 mph 93 % 0.00 in 410.0 W/m2 SCT
11:55 19.7 °F 18.0 °F 29.71 in West 7.3 mph 15.0 mph 93 % 0.00 in 415.0 W/m2 SCT
12:00 19.8 °F 18.1 °F 29.71 in West 13.9 mph 20.7 mph 93 % 0.00 in 573.0 W/m2 CLR
12:05 19.9 °F 18.2 °F 29.71 in WSW 9.2 mph 16.1 mph 93 % 0.00 in 480.0 W/m2 FEW
12:10 20.0 °F 18.3 °F 29.71 in WSW 7.1 mph 16.1 mph 93 % 0.00 in 510.0 W/m2 FEW
12:15 20.1 °F 18.4 °F 29.71 in WSW 11.5 mph 17.3 mph 93 % 0.00 in 378.0 W/m2 SCT
12:20 20.2 °F 18.5 °F 29.71 in WSW 9.0 mph 16.1 mph 93 % 0.00 in 397.0 W/m2 SCT
12:25 20.3 °F 18.6 °F 29.71 in WSW 11.2 mph 17.3 mph 93 % 0.00 in 445.0 W/m2 FEW
12:30 20.3 °F 18.6 °F 29.71 in West 9.9 mph 15.0 mph 93 % 0.00 in 415.0 W/m2 SCT
12:35 20.4 °F 18.7 °F 29.71 in WSW 8.5 mph 17.3 mph 93 % 0.00 in 385.0 W/m2 SCT
12:40 20.5 °F 19.0 °F 29.71 in WSW 11.0 mph 16.1 mph 94 % 0.00 in 429.0 W/m2 SCT
12:45 20.5 °F 19.0 °F 29.71 in SW 5.3 mph 15.0 mph 94 % 0.00 in 353.0 W/m2 SCT
12:50 20.5 °F 19.0 °F 29.71 in West 8.4 mph 15.0 mph 94 % 0.00 in 313.0 W/m2 BKN
12:55 20.6 °F 19.1 °F 29.71 in West 10.3 mph 16.1 mph 94 % 0.00 in 374.0 W/m2 SCT
13:00 20.5 °F 19.0 °F 29.71 in West 10.6 mph 15.0 mph 94 % 0.00 in 390.0 W/m2 SCT
13:05 20.5 °F 19.0 °F 29.72 in West 12.7 mph 23.0 mph 94 % 0.00 in 396.0 W/m2 SCT
13:10 20.5 °F 19.0 °F 29.72 in West 10.1 mph 13.8 mph 94 % 0.00 in 374.0 W/m2 SCT
13:15 20.5 °F 19.0 °F 29.71 in WSW 9.9 mph 15.0 mph 94 % 0.00 in 397.0 W/m2 SCT
13:20 20.6 °F 18.9 °F 29.71 in West 10.8 mph 17.3 mph 93 % 0.00 in 457.0 W/m2 SCT
13:26 20.7 °F 19.0 °F 29.71 in West 8.3 mph 16.1 mph 93 % 0.00 in 420.0 W/m2 SCT
13:31 20.8 °F 19.1 °F 29.71 in West 10.9 mph 19.0 mph 93 % 0.00 in 446.0 W/m2 SCT
13:36 20.8 °F 19.1 °F 29.70 in West 9.8 mph 15.0 mph 93 % 0.00 in 459.0 W/m2 FEW
13:41 21.0 °F 19.5 °F 29.70 in West 10.6 mph 16.1 mph 94 % 0.00 in 432.0 W/m2 SCT
13:46 21.1 °F 19.6 °F 29.70 in WSW 11.4 mph 16.1 mph 94 % 0.00 in 404.0 W/m2 SCT
13:51 21.2 °F 19.7 °F 29.70 in WSW 10.0 mph 17.3 mph 94 % 0.00 in 446.0 W/m2 SCT
13:56 21.3 °F 19.8 °F 29.70 in WSW 7.4 mph 16.1 mph 94 % 0.00 in 429.0 W/m2 FEW
14:01 21.4 °F 19.9 °F 29.70 in West 11.1 mph 18.4 mph 94 % 0.00 in 374.0 W/m2 SCT
14:06 21.5 °F 20.0 °F 29.69 in West 11.4 mph 18.0 mph 94 % 0.00 in 443.0 W/m2 SCT
14:11 21.5 °F 20.0 °F 29.69 in WSW 10.4 mph 18.0 mph 94 % 0.00 in 376.0 W/m2 SCT
14:16 21.6 °F 20.1 °F 29.69 in West 15.5 mph 21.9 mph 94 % 0.00 in 309.0 W/m2 BKN
14:21 21.6 °F 20.1 °F 29.70 in West 7.6 mph 12.7 mph 94 % 0.00 in 360.0 W/m2 BKN
14:26 21.7 °F 20.2 °F 29.69 in WNW 10.0 mph 15.0 mph 94 % 0.00 in 348.0 W/m2 SCT
14:31 21.8 °F 20.3 °F 29.70 in West 7.7 mph 17.3 mph 94 % 0.00 in 373.0 W/m2 SCT
14:36 21.8 °F 20.3 °F 29.70 in WNW 13.7 mph 19.6 mph 94 % 0.00 in 301.0 W/m2 SCT
14:41 21.8 °F 20.3 °F 29.70 in West 9.6 mph 14.0 mph 94 % 0.00 in 320.0 W/m2 SCT
14:46 21.8 °F 20.3 °F 29.69 in West 5.4 mph 11.5 mph 94 % 0.00 in 318.0 W/m2 SCT
14:51 21.9 °F 20.4 °F 29.70 in WSW 12.2 mph 21.9 mph 94 % 0.00 in 330.0 W/m2 SCT
14:56 22.0 °F 20.5 °F 29.70 in WSW 12.6 mph 17.3 mph 94 % 0.00 in 345.0 W/m2 SCT
15:02 22.1 °F 20.6 °F 29.70 in WNW 4.9 mph 11.5 mph 94 % 0.00 in 380.0 W/m2 FEW
15:07 22.3 °F 20.8 °F 29.70 in West 10.5 mph 14.0 mph 94 % 0.00 in 315.0 W/m2 SCT
15:12 22.4 °F 20.9 °F 29.70 in WSW 7.7 mph 16.0 mph 94 % 0.00 in 353.0 W/m2 SCT
15:17 22.4 °F 20.9 °F 29.70 in West 10.3 mph 13.8 mph 94 % 0.00 in 345.0 W/m2 SCT
15:22 22.5 °F 21.0 °F 29.70 in SSW 6.5 mph 16.1 mph 94 % 0.00 in 336.0 W/m2 SCT
15:27 22.7 °F 21.2 °F 29.70 in West 11.1 mph 19.6 mph 94 % 0.00 in 325.0 W/m2 SCT
15:32 22.8 °F 21.3 °F 29.70 in West 12.1 mph 13.8 mph 94 % 0.00 in 316.0 W/m2 SCT
15:37 22.8 °F 21.3 °F 29.71 in West 9.6 mph 15.0 mph 94 % 0.00 in 311.0 W/m2 SCT
15:42 22.9 °F 21.4 °F 29.71 in West 8.8 mph 15.0 mph 94 % 0.00 in 288.0 W/m2 SCT
15:47 23.0 °F 21.5 °F 29.71 in West 7.9 mph 13.0 mph 94 % 0.00 in 255.0 W/m2 SCT
15:52 23.1 °F 21.6 °F 29.71 in WSW 7.2 mph 12.0 mph 94 % 0.00 in 236.0 W/m2 BKN
15:57 23.1 °F 21.6 °F 29.71 in WNW 14.3 mph 21.9 mph 94 % 0.00 in 243.0 W/m2 BKN
16:02 23.1 °F 21.6 °F 29.72 in West 3.8 mph 10.4 mph 94 % 0.00 in 251.0 W/m2 SCT
16:07 23.1 °F 21.6 °F 29.72 in WNW 11.3 mph 15.0 mph 94 % 0.00 in 253.0 W/m2 SCT
16:12 23.2 °F 21.7 °F 29.72 in WNW 9.2 mph 12.7 mph 94 % 0.00 in 258.0 W/m2 SCT
16:17 23.2 °F 21.7 °F 29.72 in West 11.8 mph 26.5 mph 94 % 0.00 in 248.0 W/m2 SCT
16:22 23.3 °F 21.8 °F 29.72 in WNW 11.2 mph 17.3 mph 94 % 0.00 in 237.0 W/m2 SCT
16:27 23.3 °F 21.8 °F 29.72 in West 10.0 mph 15.0 mph 94 % 0.00 in 244.0 W/m2 SCT
16:32 23.3 °F 21.8 °F 29.72 in West 9.9 mph 15.0 mph 94 % 0.00 in 236.0 W/m2 SCT
16:37 23.4 °F 21.9 °F 29.73 in WNW 11.6 mph 16.1 mph 94 % 0.00 in 244.0 W/m2 SCT
16:42 23.5 °F 22.0 °F 29.73 in West 6.9 mph 12.7 mph 94 % 0.00 in 332.0 W/m2 CLR
16:47 23.7 °F 22.2 °F 29.73 in West 12.9 mph 17.3 mph 94 % 0.00 in 311.0 W/m2 CLR
16:52 23.8 °F 22.3 °F 29.73 in WNW 16.2 mph 21.9 mph 94 % 0.00 in 304.0 W/m2 CLR
16:57 24.0 °F 22.5 °F 29.73 in West 10.1 mph 16.1 mph 94 % 0.00 in 213.0 W/m2 FEW
17:02 24.1 °F 22.6 °F 29.73 in NW 12.2 mph 19.6 mph 94 % 0.00 in 193.0 W/m2 SCT
17:07 24.3 °F 22.8 °F 29.74 in WNW 13.2 mph 20.0 mph 94 % 0.00 in 195.0 W/m2 SCT
17:12 24.4 °F 22.9 °F 29.74 in WNW 13.2 mph 19.6 mph 94 % 0.00 in 230.0 W/m2 FEW
17:17 24.5 °F 23.0 °F 29.74 in West 11.3 mph 19.6 mph 94 % 0.00 in 246.0 W/m2 CLR
17:22 24.6 °F 23.4 °F 29.74 in WNW 10.2 mph 13.8 mph 95 % 0.00 in 250.0 W/m2 CLR
17:27 24.7 °F 23.5 °F 29.75 in WNW 9.7 mph 12.7 mph 95 % 0.00 in 214.0 W/m2 CLR
17:32 24.8 °F 23.6 °F 29.75 in West 13.8 mph 18.4 mph 95 % 0.00 in 181.0 W/m2 FEW
17:37 24.8 °F 23.6 °F 29.75 in NNW 10.6 mph 15.0 mph 95 % 0.00 in 118.0 W/m2 SCT
17:42 24.8 °F 23.6 °F 29.75 in West 8.9 mph 13.8 mph 95 % 0.00 in 109.0 W/m2 SCT
17:47 24.8 °F 23.6 °F 29.76 in West 11.9 mph 16.1 mph 95 % 0.00 in 104.0 W/m2 SCT
17:52 24.8 °F 23.6 °F 29.76 in WSW 10.2 mph 15.0 mph 95 % 0.00 in 104.0 W/m2 SCT
17:57 24.8 °F 23.6 °F 29.77 in West 7.5 mph 12.7 mph 95 % 0.00 in 84.0 W/m2 SCT
18:02 24.8 °F 23.6 °F 29.77 in NW 7.3 mph 11.5 mph 95 % 0.00 in 79.0 W/m2 SCT
18:07 24.8 °F 23.6 °F 29.78 in West 8.8 mph 13.8 mph 95 % 0.00 in 69.0 W/m2 SCT
18:12 24.9 °F 23.7 °F 29.78 in NW 11.6 mph 16.1 mph 95 % 0.00 in 65.0 W/m2 SCT
18:17 24.9 °F 23.7 °F 29.79 in West 12.8 mph 17.3 mph 95 % 0.00 in 86.0 W/m2 FEW
18:22 25.0 °F 23.8 °F 29.79 in West 10.4 mph 18.4 mph 95 % 0.00 in 86.0 W/m2 CLR
18:27 25.0 °F 23.8 °F 29.79 in West 12.6 mph 16.1 mph 95 % 0.00 in 65.0 W/m2 FEW
18:32 24.9 °F 23.7 °F 29.79 in NW 11.7 mph 19.6 mph 95 % 0.00 in 49.0 W/m2 FEW
18:37 24.9 °F 23.7 °F 29.80 in WNW 5.8 mph 12.7 mph 95 % 0.00 in 44.0 W/m2 FEW
18:43 25.0 °F 23.8 °F 29.80 in WNW 7.7 mph 16.1 mph 95 % 0.00 in 49.0 W/m2 CLR
18:48 25.0 °F 23.8 °F 29.80 in West 11.1 mph 13.0 mph 95 % 0.00 in 33.0 W/m2 CLR
18:53 25.0 °F 23.8 °F 29.81 in West 5.0 mph 11.5 mph 95 % 0.00 in 16.0 W/m2 SCT
18:58 25.1 °F 23.9 °F 29.81 in WNW 11.9 mph 15.0 mph 95 % 0.00 in 11.0 W/m2 SCT
19:03 25.1 °F 23.9 °F 29.81 in WNW 7.3 mph 13.8 mph 95 % 0.00 in 7.0 W/m2 FEW
19:08 25.1 °F 23.9 °F 29.82 in WSW 6.3 mph 10.4 mph 95 % 0.00 in 0.0 W/m2 CLR
19:13 25.1 °F 23.9 °F 29.82 in West 7.0 mph 9.2 mph 95 % 0.00 in 7.0 W/m2 CLR
19:18 25.1 °F 23.9 °F 29.82 in NW 10.2 mph 15.0 mph 95 % 0.00 in 0.0 W/m2 CLR
19:23 25.1 °F 23.9 °F 29.82 in WNW 8.4 mph 17.0 mph 95 % 0.00 in 0.0 W/m2 CLR
19:28 25.2 °F 24.0 °F 29.83 in WNW 11.2 mph 18.4 mph 95 % 0.00 in 0.0 W/m2 CLR
19:33 25.2 °F 24.0 °F 29.83 in WNW 10.6 mph 13.8 mph 95 % 0.00 in 0.0 W/m2 CLR
19:38 25.3 °F 24.1 °F 29.83 in WNW 7.1 mph 16.0 mph 95 % 0.00 in 0.0 W/m2 CLR
19:43 25.3 °F 24.1 °F 29.83 in WNW 13.0 mph 20.7 mph 95 % 0.00 in 0.0 W/m2 CLR
19:48 25.3 °F 24.1 °F 29.84 in WNW 5.5 mph 11.5 mph 95 % 0.00 in 0.0 W/m2 CLR
19:53 25.4 °F 24.2 °F 29.84 in WNW 14.6 mph 25.3 mph 95 % 0.00 in 0.0 W/m2 CLR
19:58 25.4 °F 24.2 °F 29.85 in WNW 10.9 mph 19.6 mph 95 % 0.00 in 0.0 W/m2 CLR
20:03 25.4 °F 24.2 °F 29.85 in WNW 17.8 mph 25.3 mph 95 % 0.00 in 0.0 W/m2 CLR
20:08 25.4 °F 24.2 °F 29.85 in NNW 8.6 mph 15.0 mph 95 % 0.00 in 0.0 W/m2 CLR
20:13 25.4 °F 24.2 °F 29.85 in WNW 14.7 mph 24.2 mph 95 % 0.00 in 0.0 W/m2 CLR
20:18 25.3 °F 24.1 °F 29.86 in NW 13.7 mph 18.4 mph 95 % 0.00 in 0.0 W/m2 CLR
20:23 25.3 °F 24.1 °F 29.86 in NW 14.7 mph 19.6 mph 95 % 0.00 in 0.0 W/m2 CLR
20:28 25.3 °F 24.1 °F 29.87 in WNW 12.9 mph 25.0 mph 95 % 0.00 in 0.0 W/m2 CLR
20:33 25.3 °F 24.1 °F 29.87 in WNW 14.4 mph 19.6 mph 95 % 0.00 in 0.0 W/m2 CLR
20:38 25.2 °F 24.0 °F 29.88 in West 15.1 mph 19.6 mph 95 % 0.00 in 0.0 W/m2 CLR
20:43 25.2 °F 24.0 °F 29.88 in WNW 16.4 mph 21.9 mph 95 % 0.00 in 0.0 W/m2 CLR
20:48 25.1 °F 23.9 °F 29.88 in NW 11.9 mph 17.3 mph 95 % 0.00 in 0.0 W/m2 CLR
20:53 25.2 °F 24.0 °F 29.89 in WNW 10.5 mph 13.0 mph 95 % 0.00 in 0.0 W/m2 CLR
20:58 25.2 °F 24.0 °F 29.89 in WNW 10.6 mph 13.0 mph 95 % 0.00 in 0.0 W/m2 CLR
21:03 25.1 °F 23.9 °F 29.89 in NW 15.8 mph 20.0 mph 95 % 0.00 in 0.0 W/m2 CLR
21:08 25.1 °F 23.9 °F 29.90 in NW 11.7 mph 27.6 mph 95 % 0.00 in 0.0 W/m2 CLR
21:13 25.0 °F 23.8 °F 29.90 in WNW 10.1 mph 28.8 mph 95 % 0.00 in 0.0 W/m2 CLR
21:18 25.0 °F 23.8 °F 29.90 in West 12.9 mph 18.0 mph 95 % 0.00 in 0.0 W/m2 CLR
21:23 25.0 °F 23.8 °F 29.90 in West 15.1 mph 20.0 mph 95 % 0.00 in 0.0 W/m2 CLR
21:28 25.0 °F 23.8 °F 29.91 in WNW 11.0 mph 19.6 mph 95 % 0.00 in 0.0 W/m2 CLR
21:33 25.0 °F 23.8 °F 29.91 in West 12.9 mph 20.7 mph 95 % 0.00 in 0.0 W/m2 CLR
21:38 25.0 °F 23.8 °F 29.92 in WNW 14.6 mph 21.0 mph 95 % 0.00 in 0.0 W/m2 CLR
21:43 24.9 °F 23.7 °F 29.92 in West 12.2 mph 19.6 mph 95 % 0.00 in 0.0 W/m2 CLR
21:48 24.8 °F 23.6 °F 29.92 in WNW 12.8 mph 20.0 mph 95 % 0.00 in 0.0 W/m2 CLR
21:53 24.7 °F 23.5 °F 29.93 in WNW 14.2 mph 27.6 mph 95 % 0.00 in 0.0 W/m2 CLR
21:58 24.6 °F 23.4 °F 29.93 in WNW 14.0 mph 19.6 mph 95 % 0.00 in 0.0 W/m2 CLR
22:03 24.5 °F 23.0 °F 29.93 in WNW 19.8 mph 27.6 mph 94 % 0.00 in 0.0 W/m2 CLR
22:08 24.4 °F 22.9 °F 29.94 in WNW 13.9 mph 19.6 mph 94 % 0.00 in 0.0 W/m2 CLR
22:14 24.3 °F 22.8 °F 29.94 in WNW 14.4 mph 26.5 mph 94 % 0.00 in 0.0 W/m2 CLR
22:19 24.2 °F 22.7 °F 29.94 in WNW 13.7 mph 19.6 mph 94 % 0.00 in 0.0 W/m2 CLR
22:24 24.2 °F 22.7 °F 29.95 in WNW 18.0 mph 26.5 mph 94 % 0.00 in 0.0 W/m2 CLR
22:29 24.1 °F 22.6 °F 29.95 in WNW 15.4 mph 24.2 mph 94 % 0.00 in 0.0 W/m2 CLR
22:34 24.0 °F 22.5 °F 29.95 in WNW 15.4 mph 26.5 mph 94 % 0.00 in 0.0 W/m2 CLR
22:39 24.0 °F 22.5 °F 29.96 in WNW 11.5 mph 16.1 mph 94 % 0.00 in 0.0 W/m2 CLR
22:44 24.0 °F 22.5 °F 29.96 in West 12.5 mph 21.9 mph 94 % 0.00 in 0.0 W/m2 CLR
22:49 23.9 °F 22.4 °F 29.96 in West 11.2 mph 19.6 mph 94 % 0.00 in 0.0 W/m2 CLR
22:54 23.8 °F 22.3 °F 29.96 in West 15.6 mph 21.9 mph 94 % 0.00 in 0.0 W/m2 CLR
22:59 23.7 °F 22.2 °F 29.96 in WNW 14.1 mph 15.0 mph 94 % 0.00 in 0.0 W/m2 CLR
23:04 23.6 °F 22.1 °F 29.97 in WNW 9.7 mph 23.0 mph 94 % 0.00 in 0.0 W/m2 CLR
23:09 23.6 °F 22.1 °F 29.98 in West 10.1 mph 13.0 mph 94 % 0.00 in 0.0 W/m2 CLR
23:14 23.5 °F 22.0 °F 29.97 in WNW 15.2 mph 21.9 mph 94 % 0.00 in 0.0 W/m2 CLR
23:19 23.5 °F 22.0 °F 29.97 in WNW 6.6 mph 16.1 mph 94 % 0.00 in 0.0 W/m2 CLR
23:24 23.4 °F 21.9 °F 29.98 in WNW 10.8 mph 17.3 mph 94 % 0.00 in 0.0 W/m2 CLR
23:29 23.4 °F 21.9 °F 29.98 in WNW 13.5 mph 16.1 mph 94 % 0.00 in 0.0 W/m2 CLR
23:34 23.3 °F 21.8 °F 29.98 in NW 11.8 mph 18.4 mph 94 % 0.00 in 0.0 W/m2 CLR
23:39 23.2 °F 21.7 °F 29.98 in WNW 12.9 mph 19.6 mph 94 % 0.00 in 0.0 W/m2 CLR
23:44 23.2 °F 21.7 °F 29.98 in West 10.4 mph 18.4 mph 94 % 0.00 in 0.0 W/m2 CLR
23:49 23.1 °F 21.6 °F 29.98 in West 7.6 mph 13.8 mph 94 % 0.00 in 0.0 W/m2 CLR
23:54 23.1 °F 21.6 °F 29.99 in WNW 8.3 mph 15.0 mph 94 % 0.00 in 0.0 W/m2 CLR
23:59 23.1 °F 21.6 °F 29.99 in WSW 6.9 mph 16.1 mph 94 % 0.00 in 0.0 W/m2 CLR
Air Products Campus Weather
Compliments of Weather Underground - 3.5 mb